KEAU

Chippewa Valley Regional Airport

Eau Claire, Wisconsin, USA
METAR KEAU 200856Z AUTO 05003KT 10SM BKN060 OVC080 18/16 A2992 RMK AO2 SLP131 T01780161 58013
Observed Flight Rules
Jun-20 @ 08:56 UTC (16 minutes ago) Visual Flight Rules
Wind Visibility Clouds
50° at 3 knots 10 miles
  • Broken at 6,000' AGL
  • Overcast at 8,000' AGL
Temperatures Readings
Current 18°C / 64°F
Dewpoint 16°C / 61°F
Humidity 88%
Altimeter 29.92" Hg
Pressure 1013.1 hPa
Elevation 276
METAR KEAU 200856Z AUTO 05003KT 10SM BKN060 OVC080 18/16 A2992 RMK AO2 SLP131 T01780161 58013
Observed Flight Rules
Jun-20 @ 08:56 UTC
(16 minutes ago)
VFR
Wind Visibility
50° at 3 knots 10 miles
Clouds
  • Broken at 6,000' AGL
  • Overcast at 8,000' AGL
Temperature Dewpoint
18°C / 64°F 16°C / 61°F
Humidity Altimeter Pressure
88% 29.92" Hg 1013.1 hPa